GEC8461 LTFM-EDDF
Flight info
| Callsign | GEC8461 |
|---|---|
| Flight time | N/A |
| Altitude | 38000 |
| Route | VADEN1D/35L VADEN N618 BAKLO DCT XANEX DCT UTEKA DCT BABIT DCT GOTAR DCT ABRUK DCT SIMBA DCT AKINI T161 DEBHI DEBHI1B |
| Aircraft | B77L/H-SDE2E3FGHIJ1J3J4J5M1P2RWXYZ/LB1D1 |
Departure
| Time | 2026-05-04 14:24 |
|---|---|
| Airport | İstanbul Airport (LTFM) |
Arrival
| Time | N/A |
|---|---|
| Airport | Frankfurt Main Airport (EDDF) |
| Time | Latitude | Longitude | Altitude | Speed | Heading |
|---|---|---|---|---|---|
| 2026-05-04 14:00 | 41.27095 | 28.71373 | 329 ft | 0 kts | 89° |
| 2026-05-04 14:13 | 41.27095 | 28.71342 | 324 ft | 4 kts | 93° |
| 2026-05-04 14:13 | 41.27098 | 28.71307 | 320 ft | 4 kts | 99° |
| 2026-05-04 14:13 | 41.27103 | 28.71271 | 319 ft | 4 kts | 106° |
| 2026-05-04 14:14 | 41.27112 | 28.71238 | 321 ft | 4 kts | 117° |
| 2026-05-04 14:14 | 41.27140 | 28.71203 | 318 ft | 0 kts | 179° |
| 2026-05-04 14:18 | 41.27131 | 28.71203 | 319 ft | 6 kts | 179° |
| 2026-05-04 14:18 | 41.26916 | 28.71207 | 324 ft | 18 kts | 179° |
| 2026-05-04 14:19 | 41.26704 | 28.71230 | 332 ft | 9 kts | 131° |
| 2026-05-04 14:19 | 41.26699 | 28.71292 | 333 ft | 5 kts | 88° |
| 2026-05-04 14:19 | 41.26700 | 28.71355 | 331 ft | 9 kts | 89° |
| 2026-05-04 14:19 | 41.26701 | 28.71462 | 329 ft | 14 kts | 89° |
| 2026-05-04 14:20 | 41.26703 | 28.71612 | 324 ft | 18 kts | 89° |
| 2026-05-04 14:20 | 41.26706 | 28.71805 | 321 ft | 22 kts | 89° |
| 2026-05-04 14:20 | 41.26708 | 28.72021 | 315 ft | 22 kts | 89° |
| 2026-05-04 14:21 | 41.26711 | 28.72323 | 317 ft | 9 kts | 89° |
| 2026-05-04 14:21 | 41.26711 | 28.72349 | 317 ft | 0 kts | 89° |
| 2026-05-04 14:21 | 41.26711 | 28.72363 | 317 ft | 3 kts | 89° |
| 2026-05-04 14:22 | 41.26712 | 28.72423 | 316 ft | 10 kts | 89° |
| 2026-05-04 14:22 | 41.26715 | 28.72499 | 314 ft | 6 kts | 70° |
| 2026-05-04 14:22 | 41.26742 | 28.72514 | 316 ft | 4 kts | 8° |
| 2026-05-04 14:22 | 41.26771 | 28.72515 | 314 ft | 0 kts | 358° |
| 2026-05-04 14:23 | 41.26885 | 28.72510 | 311 ft | 33 kts | 358° |
| 2026-05-04 14:23 | 41.27225 | 28.72504 | 302 ft | 69 kts | 360° |
| 2026-05-04 14:24 | 41.27919 | 28.72490 | 282 ft | 128 kts | 359° |
| 2026-05-04 14:24 | 41.28932 | 28.72491 | 490 ft | 151 kts | 0° |
| 2026-05-04 14:24 | 41.29914 | 28.72493 | 1104 ft | 140 kts | 359° |
| 2026-05-04 14:24 | 41.30906 | 28.72484 | 1581 ft | 139 kts | 1° |
| 2026-05-04 14:25 | 41.31857 | 28.72474 | 2358 ft | 139 kts | 0° |
| 2026-05-04 14:25 | 41.34012 | 28.72490 | 3483 ft | 177 kts | 0° |
| 2026-05-04 14:25 | 41.35361 | 28.72511 | 3731 ft | 210 kts | 0° |
| 2026-05-04 14:26 | 41.36890 | 28.72419 | 4085 ft | 228 kts | 347° |
| 2026-05-04 14:26 | 41.38335 | 28.71461 | 4851 ft | 237 kts | 327° |
| 2026-05-04 14:26 | 41.39539 | 28.69919 | 5663 ft | 245 kts | 311° |
| 2026-05-04 14:26 | 41.40480 | 28.68007 | 6512 ft | 247 kts | 307° |
| 2026-05-04 14:27 | 41.41398 | 28.66048 | 7297 ft | 252 kts | 307° |
| 2026-05-04 14:27 | 41.42327 | 28.64047 | 8411 ft | 255 kts | 308° |
| 2026-05-04 14:27 | 41.43257 | 28.62028 | 9684 ft | 256 kts | 308° |
| 2026-05-04 14:27 | 41.44205 | 28.59973 | 10630 ft | 266 kts | 309° |
| 2026-05-04 14:28 | 41.45220 | 28.57792 | 11019 ft | 297 kts | 308° |
| 2026-05-04 14:28 | 41.46389 | 28.55286 | 11268 ft | 331 kts | 308° |
| 2026-05-04 14:28 | 41.47615 | 28.52632 | 11956 ft | 348 kts | 307° |
| 2026-05-04 14:28 | 41.48906 | 28.49821 | 12753 ft | 362 kts | 307° |
| 2026-05-04 14:29 | 41.51593 | 28.43942 | 14672 ft | 378 kts | 307° |
| 2026-05-04 14:29 | 41.54374 | 28.37855 | 16566 ft | 391 kts | 307° |
| 2026-05-04 14:30 | 41.55802 | 28.34728 | 17473 ft | 398 kts | 307° |
| 2026-05-04 14:30 | 41.57257 | 28.31545 | 18366 ft | 405 kts | 307° |
| 2026-05-04 14:30 | 41.60227 | 28.25035 | 19945 ft | 415 kts | 307° |
| 2026-05-04 14:31 | 41.61739 | 28.21718 | 20732 ft | 421 kts | 307° |
| 2026-05-04 14:31 | 41.64819 | 28.14951 | 22327 ft | 432 kts | 307° |
| 2026-05-04 14:32 | 41.67977 | 28.07997 | 23819 ft | 443 kts | 307° |
| 2026-05-04 14:32 | 41.69580 | 28.04463 | 24048 ft | 447 kts | 307° |
| 2026-05-04 14:32 | 41.71192 | 28.00899 | 24031 ft | 447 kts | 307° |
| 2026-05-04 14:32 | 41.72806 | 27.97326 | 24318 ft | 450 kts | 307° |
| 2026-05-04 14:33 | 41.74432 | 27.93724 | 25053 ft | 453 kts | 307° |
| 2026-05-04 14:33 | 41.76059 | 27.90116 | 25819 ft | 454 kts | 306° |
| 2026-05-04 14:33 | 41.77702 | 27.86471 | 26512 ft | 458 kts | 306° |
| 2026-05-04 14:33 | 41.79353 | 27.82805 | 27110 ft | 463 kts | 306° |
| 2026-05-04 14:34 | 41.81027 | 27.79085 | 27710 ft | 468 kts | 306° |
| 2026-05-04 14:34 | 41.82716 | 27.75325 | 28314 ft | 473 kts | 306° |
| 2026-05-04 14:34 | 41.84418 | 27.71529 | 28919 ft | 477 kts | 305° |
| 2026-05-04 14:34 | 41.86108 | 27.67754 | 29555 ft | 480 kts | 305° |
| 2026-05-04 14:35 | 41.87833 | 27.63896 | 30131 ft | 484 kts | 305° |
| 2026-05-04 14:35 | 41.89572 | 27.60005 | 30578 ft | 488 kts | 305° |
| 2026-05-04 14:35 | 41.91321 | 27.56082 | 31018 ft | 491 kts | 305° |
| 2026-05-04 14:35 | 41.93073 | 27.52145 | 31581 ft | 491 kts | 304° |
| 2026-05-04 14:36 | 41.94819 | 27.48217 | 32202 ft | 488 kts | 304° |
| 2026-05-04 14:36 | 41.96557 | 27.44302 | 32785 ft | 487 kts | 304° |